Main page
METAR-TAF:

METAR-TAF

Airports :

Gold Coast Airport

Coolangatta, Australia

latitude: 28-10S, longitude: 153-30E, elevation: 6 m

Current weather observation

The report was made 13 minutes ago, at 10:00 UTC
Wind 5 kt from the West/Southwest
Temperature 14°C
Humidity 94%
Pressure 1009 hPa
Visibility 10 km or more

METAR: YBCG 121000Z AUTO 25005KT 9999 // NCD 14/13 Q1009 RF00.0/000.0

Time: 20:13 (10:13 UTC)

Forecast

The report was made 2 hours and 1 minutes ago, at 08:12 UTC
Forecast valid from 12 at 09 UTC to 13 at 06 UTC
Wind 6 kt from the West
Visibility 10 km or more
no clouds below 1500 m and no cumulonimbus
From 13 at 0000 UTC
Wind 9 kt from the North/Northeast
Visibility 10 km or more
no clouds below 1500 m and no cumulonimbus

TAF: YBCG 120812Z 1209/1306 27006KT CAVOK FM130000 03009KT CAVOK

Weather observations and forecasts of more than 4000 airports (METAR and TAF reports).

The available stations are represented by yellow and red dots on the map.

Hover mouse over dot to see the name of the station.

Then click to see weather observations and forecasts.

To change the map : click on the green buttons with a black cross to zoom in, on the green button with a dash to zoom out, or on the green arrows for adjacent maps.


METAR-TAF: